sensor_id;sensor_type;location;lat;lon;timestamp;temperature;humidity
45012;DHT22;63444;48.148;11.542;2024-02-28T00:02:14;7.90;99.90
45012;DHT22;63444;48.148;11.542;2024-02-28T00:04:40;8.00;99.90
45012;DHT22;63444;48.148;11.542;2024-02-28T00:07:07;7.90;99.90
45012;DHT22;63444;48.148;11.542;2024-02-28T00:09:32;7.90;99.90
45012;DHT22;63444;48.148;11.542;2024-02-28T00:11:58;7.80;99.90
45012;DHT22;63444;48.148;11.542;2024-02-28T00:14:23;7.90;99.90
45012;DHT22;63444;48.148;11.542;2024-02-28T00:16:49;7.90;99.90
45012;DHT22;63444;48.148;11.542;2024-02-28T00:19:16;7.90;99.90
45012;DHT22;63444;48.148;11.542;2024-02-28T00:21:43;7.90;99.90
45012;DHT22;63444;48.148;11.542;2024-02-28T00:24:09;7.90;99.90
45012;DHT22;63444;48.148;11.542;2024-02-28T00:26:35;7.90;99.90
45012;DHT22;63444;48.148;11.542;2024-02-28T00:29:01;8.00;99.90
45012;DHT22;63444;48.148;11.542;2024-02-28T00:31:27;8.00;99.90
45012;DHT22;63444;48.148;11.542;2024-02-28T00:33:52;8.00;99.90
45012;DHT22;63444;48.148;11.542;2024-02-28T00:36:18;7.90;99.90
45012;DHT22;63444;48.148;11.542;2024-02-28T00:38:44;7.80;99.90
45012;DHT22;63444;48.148;11.542;2024-02-28T00:41:10;7.80;99.90
45012;DHT22;63444;48.148;11.542;2024-02-28T00:43:35;7.80;99.90
45012;DHT22;63444;48.148;11.542;2024-02-28T00:46:01;7.80;99.90
45012;DHT22;63444;48.148;11.542;2024-02-28T00:48:27;7.80;99.90
45012;DHT22;63444;48.148;11.542;2024-02-28T00:50:53;7.80;99.90
45012;DHT22;63444;48.148;11.542;2024-02-28T00:53:20;7.80;99.90
45012;DHT22;63444;48.148;11.542;2024-02-28T00:55:46;7.80;99.90
45012;DHT22;63444;48.148;11.542;2024-02-28T00:58:11;7.80;99.90
45012;DHT22;63444;48.148;11.542;2024-02-28T01:00:37;7.90;99.90
45012;DHT22;63444;48.148;11.542;2024-02-28T01:03:03;7.90;99.90
45012;DHT22;63444;48.148;11.542;2024-02-28T01:05:34;7.90;99.90
45012;DHT22;63444;48.148;11.542;2024-02-28T01:08:00;7.90;99.90
45012;DHT22;63444;48.148;11.542;2024-02-28T01:10:26;8.00;99.90
45012;DHT22;63444;48.148;11.542;2024-02-28T01:12:51;7.90;99.90
45012;DHT22;63444;48.148;11.542;2024-02-28T01:15:17;7.90;99.90
45012;DHT22;63444;48.148;11.542;2024-02-28T01:17:42;7.90;99.90
45012;DHT22;63444;48.148;11.542;2024-02-28T01:20:08;7.90;99.90
45012;DHT22;63444;48.148;11.542;2024-02-28T01:22:35;7.90;99.90
45012;DHT22;63444;48.148;11.542;2024-02-28T01:25:02;8.00;99.90
45012;DHT22;63444;48.148;11.542;2024-02-28T01:27:28;7.90;99.90
45012;DHT22;63444;48.148;11.542;2024-02-28T01:29:54;7.90;99.90
45012;DHT22;63444;48.148;11.542;2024-02-28T01:32:19;8.00;99.90
45012;DHT22;63444;48.148;11.542;2024-02-28T01:34:45;7.90;99.90
45012;DHT22;63444;48.148;11.542;2024-02-28T01:37:11;7.90;99.90
45012;DHT22;63444;48.148;11.542;2024-02-28T01:39:37;8.00;99.90
45012;DHT22;63444;48.148;11.542;2024-02-28T01:42:03;7.90;99.90
45012;DHT22;63444;48.148;11.542;2024-02-28T01:44:29;7.90;99.90
45012;DHT22;63444;48.148;11.542;2024-02-28T01:46:54;8.00;99.90
45012;DHT22;63444;48.148;11.542;2024-02-28T01:49:22;7.90;99.90
45012;DHT22;63444;48.148;11.542;2024-02-28T01:51:49;7.90;99.90
45012;DHT22;63444;48.148;11.542;2024-02-28T01:54:15;7.90;99.90
45012;DHT22;63444;48.148;11.542;2024-02-28T01:56:41;8.00;99.90
45012;DHT22;63444;48.148;11.542;2024-02-28T01:59:10;8.00;99.90
45012;DHT22;63444;48.148;11.542;2024-02-28T02:01:36;8.00;99.90
45012;DHT22;63444;48.148;11.542;2024-02-28T02:04:03;8.00;99.90
45012;DHT22;63444;48.148;11.542;2024-02-28T02:06:30;7.90;99.90
45012;DHT22;63444;48.148;11.542;2024-02-28T02:08:55;7.80;99.90
45012;DHT22;63444;48.148;11.542;2024-02-28T02:11:21;7.80;99.90
45012;DHT22;63444;48.148;11.542;2024-02-28T02:13:51;7.80;99.90
45012;DHT22;63444;48.148;11.542;2024-02-28T02:16:18;7.80;99.90
45012;DHT22;63444;48.148;11.542;2024-02-28T02:18:46;7.80;99.90
45012;DHT22;63444;48.148;11.542;2024-02-28T02:21:17;7.80;99.90
45012;DHT22;63444;48.148;11.542;2024-02-28T02:23:43;7.80;99.90
45012;DHT22;63444;48.148;11.542;2024-02-28T02:26:09;7.80;99.90
45012;DHT22;63444;48.148;11.542;2024-02-28T02:28:35;7.90;99.90
45012;DHT22;63444;48.148;11.542;2024-02-28T02:31:00;7.90;99.90
45012;DHT22;63444;48.148;11.542;2024-02-28T02:33:26;7.90;99.90
45012;DHT22;63444;48.148;11.542;2024-02-28T02:35:53;7.90;99.90
45012;DHT22;63444;48.148;11.542;2024-02-28T02:38:18;7.90;99.90
45012;DHT22;63444;48.148;11.542;2024-02-28T02:40:51;7.80;99.90
45012;DHT22;63444;48.148;11.542;2024-02-28T02:43:17;7.70;99.90
45012;DHT22;63444;48.148;11.542;2024-02-28T02:45:43;7.60;99.90
45012;DHT22;63444;48.148;11.542;2024-02-28T02:48:09;7.50;99.90
45012;DHT22;63444;48.148;11.542;2024-02-28T02:50:35;7.30;99.90
45012;DHT22;63444;48.148;11.542;2024-02-28T02:53:01;7.30;99.90
45012;DHT22;63444;48.148;11.542;2024-02-28T02:55:27;7.30;99.90
45012;DHT22;63444;48.148;11.542;2024-02-28T02:57:52;7.20;99.90
45012;DHT22;63444;48.148;11.542;2024-02-28T03:00:18;7.20;99.90
45012;DHT22;63444;48.148;11.542;2024-02-28T03:02:44;7.20;99.90
45012;DHT22;63444;48.148;11.542;2024-02-28T03:05:09;7.10;99.90
45012;DHT22;63444;48.148;11.542;2024-02-28T03:07:35;7.10;99.90
45012;DHT22;63444;48.148;11.542;2024-02-28T03:10:00;7.10;99.90
45012;DHT22;63444;48.148;11.542;2024-02-28T03:12:27;7.00;99.90
45012;DHT22;63444;48.148;11.542;2024-02-28T03:14:52;7.00;99.90
45012;DHT22;63444;48.148;11.542;2024-02-28T03:17:18;6.90;99.90
45012;DHT22;63444;48.148;11.542;2024-02-28T03:19:43;6.90;99.90
45012;DHT22;63444;48.148;11.542;2024-02-28T03:22:09;6.90;99.90
45012;DHT22;63444;48.148;11.542;2024-02-28T03:24:35;6.90;99.90
45012;DHT22;63444;48.148;11.542;2024-02-28T03:27:04;7.00;99.90
45012;DHT22;63444;48.148;11.542;2024-02-28T03:29:30;6.90;99.90
45012;DHT22;63444;48.148;11.542;2024-02-28T03:31:56;6.90;99.90
45012;DHT22;63444;48.148;11.542;2024-02-28T03:34:22;6.90;99.90
45012;DHT22;63444;48.148;11.542;2024-02-28T03:36:47;6.80;99.90
45012;DHT22;63444;48.148;11.542;2024-02-28T03:39:13;6.80;99.90
45012;DHT22;63444;48.148;11.542;2024-02-28T03:41:39;6.80;99.90
45012;DHT22;63444;48.148;11.542;2024-02-28T03:44:05;6.70;99.90
45012;DHT22;63444;48.148;11.542;2024-02-28T03:46:31;6.70;99.90
45012;DHT22;63444;48.148;11.542;2024-02-28T03:48:56;6.70;99.90
45012;DHT22;63444;48.148;11.542;2024-02-28T03:51:22;6.70;99.90
45012;DHT22;63444;48.148;11.542;2024-02-28T03:53:48;6.80;99.90
45012;DHT22;63444;48.148;11.542;2024-02-28T03:56:24;6.80;99.90
45012;DHT22;63444;48.148;11.542;2024-02-28T03:58:50;6.70;99.90
45012;DHT22;63444;48.148;11.542;2024-02-28T04:01:16;6.70;99.90
45012;DHT22;63444;48.148;11.542;2024-02-28T04:03:42;6.70;99.90
45012;DHT22;63444;48.148;11.542;2024-02-28T04:06:07;6.70;99.90
45012;DHT22;63444;48.148;11.542;2024-02-28T04:08:33;6.70;99.90
45012;DHT22;63444;48.148;11.542;2024-02-28T04:10:58;6.70;99.90
45012;DHT22;63444;48.148;11.542;2024-02-28T04:13:24;6.60;99.90
45012;DHT22;63444;48.148;11.542;2024-02-28T04:15:50;6.60;99.90
45012;DHT22;63444;48.148;11.542;2024-02-28T04:18:15;6.60;99.90
45012;DHT22;63444;48.148;11.542;2024-02-28T04:20:41;6.60;99.90
45012;DHT22;63444;48.148;11.542;2024-02-28T04:23:06;6.50;99.90
45012;DHT22;63444;48.148;11.542;2024-02-28T04:25:32;6.60;99.90
45012;DHT22;63444;48.148;11.542;2024-02-28T04:27:58;6.50;99.90
45012;DHT22;63444;48.148;11.542;2024-02-28T04:30:23;6.60;99.90
45012;DHT22;63444;48.148;11.542;2024-02-28T04:32:49;6.60;99.90
45012;DHT22;63444;48.148;11.542;2024-02-28T04:35:15;6.60;99.90
45012;DHT22;63444;48.148;11.542;2024-02-28T04:37:45;6.60;99.90
45012;DHT22;63444;48.148;11.542;2024-02-28T04:40:11;6.60;99.90
45012;DHT22;63444;48.148;11.542;2024-02-28T04:42:37;6.60;99.90
45012;DHT22;63444;48.148;11.542;2024-02-28T04:45:04;6.60;99.90
45012;DHT22;63444;48.148;11.542;2024-02-28T04:47:29;6.50;99.90
45012;DHT22;63444;48.148;11.542;2024-02-28T04:49:56;6.60;99.90
45012;DHT22;63444;48.148;11.542;2024-02-28T04:52:22;6.50;99.90
45012;DHT22;63444;48.148;11.542;2024-02-28T04:54:47;6.60;99.90
45012;DHT22;63444;48.148;11.542;2024-02-28T04:57:13;6.70;99.90
45012;DHT22;63444;48.148;11.542;2024-02-28T04:59:39;6.70;99.90
45012;DHT22;63444;48.148;11.542;2024-02-28T05:02:06;6.70;99.90
45012;DHT22;63444;48.148;11.542;2024-02-28T05:04:32;6.80;99.90
45012;DHT22;63444;48.148;11.542;2024-02-28T05:06:57;6.70;99.90
45012;DHT22;63444;48.148;11.542;2024-02-28T05:09:23;6.70;99.90
45012;DHT22;63444;48.148;11.542;2024-02-28T05:11:48;6.60;99.90
45012;DHT22;63444;48.148;11.542;2024-02-28T05:14:14;6.60;99.90
45012;DHT22;63444;48.148;11.542;2024-02-28T05:16:40;6.50;99.90
45012;DHT22;63444;48.148;11.542;2024-02-28T05:19:05;6.60;99.90
45012;DHT22;63444;48.148;11.542;2024-02-28T05:21:31;6.60;99.90
45012;DHT22;63444;48.148;11.542;2024-02-28T05:23:56;6.60;99.90
45012;DHT22;63444;48.148;11.542;2024-02-28T05:26:22;6.60;99.90
45012;DHT22;63444;48.148;11.542;2024-02-28T05:28:47;6.60;99.90
45012;DHT22;63444;48.148;11.542;2024-02-28T05:31:27;6.60;99.90
45012;DHT22;63444;48.148;11.542;2024-02-28T05:33:53;6.60;99.90
45012;DHT22;63444;48.148;11.542;2024-02-28T05:36:23;6.50;99.90
45012;DHT22;63444;48.148;11.542;2024-02-28T05:38:49;6.60;99.90
45012;DHT22;63444;48.148;11.542;2024-02-28T05:41:18;6.60;99.90
45012;DHT22;63444;48.148;11.542;2024-02-28T05:43:44;6.60;99.90
45012;DHT22;63444;48.148;11.542;2024-02-28T05:46:10;6.60;99.90
45012;DHT22;63444;48.148;11.542;2024-02-28T05:48:36;6.60;99.90
45012;DHT22;63444;48.148;11.542;2024-02-28T05:51:02;6.60;99.90
45012;DHT22;63444;48.148;11.542;2024-02-28T05:53:28;6.60;99.90
45012;DHT22;63444;48.148;11.542;2024-02-28T05:55:58;6.60;99.90
45012;DHT22;63444;48.148;11.542;2024-02-28T05:58:23;6.60;99.90
45012;DHT22;63444;48.148;11.542;2024-02-28T06:00:50;6.60;99.90
45012;DHT22;63444;48.148;11.542;2024-02-28T06:03:16;6.50;99.90
45012;DHT22;63444;48.148;11.542;2024-02-28T06:05:42;6.60;99.90
45012;DHT22;63444;48.148;11.542;2024-02-28T06:08:07;6.60;99.90
45012;DHT22;63444;48.148;11.542;2024-02-28T06:10:33;6.70;99.90
45012;DHT22;63444;48.148;11.542;2024-02-28T06:12:58;6.60;99.90
45012;DHT22;63444;48.148;11.542;2024-02-28T06:15:25;6.70;99.90
45012;DHT22;63444;48.148;11.542;2024-02-28T06:17:51;6.70;99.90
45012;DHT22;63444;48.148;11.542;2024-02-28T06:20:16;6.60;99.90
45012;DHT22;63444;48.148;11.542;2024-02-28T06:22:42;6.70;99.90
45012;DHT22;63444;48.148;11.542;2024-02-28T06:25:08;6.80;99.90
45012;DHT22;63444;48.148;11.542;2024-02-28T06:27:43;6.80;99.90
45012;DHT22;63444;48.148;11.542;2024-02-28T06:30:09;6.80;99.90
45012;DHT22;63444;48.148;11.542;2024-02-28T06:32:35;6.90;99.90
45012;DHT22;63444;48.148;11.542;2024-02-28T06:35:01;6.90;99.90
45012;DHT22;63444;48.148;11.542;2024-02-28T06:37:26;6.90;99.90
45012;DHT22;63444;48.148;11.542;2024-02-28T06:39:53;6.80;99.90
45012;DHT22;63444;48.148;11.542;2024-02-28T06:42:18;6.70;99.90
45012;DHT22;63444;48.148;11.542;2024-02-28T06:44:44;6.80;99.90
45012;DHT22;63444;48.148;11.542;2024-02-28T06:47:10;6.60;99.90
45012;DHT22;63444;48.148;11.542;2024-02-28T06:49:35;6.60;99.90
45012;DHT22;63444;48.148;11.542;2024-02-28T06:52:01;6.70;99.90
45012;DHT22;63444;48.148;11.542;2024-02-28T06:54:29;6.60;99.90
45012;DHT22;63444;48.148;11.542;2024-02-28T06:56:55;6.80;99.90
45012;DHT22;63444;48.148;11.542;2024-02-28T06:59:21;6.70;99.90
45012;DHT22;63444;48.148;11.542;2024-02-28T07:01:46;6.80;99.90
45012;DHT22;63444;48.148;11.542;2024-02-28T07:04:12;6.80;99.90
45012;DHT22;63444;48.148;11.542;2024-02-28T07:06:38;6.80;99.90
45012;DHT22;63444;48.148;11.542;2024-02-28T07:09:04;6.90;99.90
45012;DHT22;63444;48.148;11.542;2024-02-28T07:11:29;6.80;99.90
45012;DHT22;63444;48.148;11.542;2024-02-28T07:13:55;6.90;99.90
45012;DHT22;63444;48.148;11.542;2024-02-28T07:16:23;6.90;99.90
45012;DHT22;63444;48.148;11.542;2024-02-28T07:18:48;6.70;99.90
45012;DHT22;63444;48.148;11.542;2024-02-28T07:21:14;6.70;99.90
45012;DHT22;63444;48.148;11.542;2024-02-28T07:23:40;6.70;99.90
45012;DHT22;63444;48.148;11.542;2024-02-28T07:26:06;6.60;99.90
45012;DHT22;63444;48.148;11.542;2024-02-28T07:28:32;6.60;99.90
45012;DHT22;63444;48.148;11.542;2024-02-28T07:30:58;6.60;99.90
45012;DHT22;63444;48.148;11.542;2024-02-28T07:33:23;6.60;99.90
45012;DHT22;63444;48.148;11.542;2024-02-28T07:35:52;6.70;99.90
45012;DHT22;63444;48.148;11.542;2024-02-28T07:38:17;6.70;99.90
45012;DHT22;63444;48.148;11.542;2024-02-28T07:40:47;6.80;99.90
45012;DHT22;63444;48.148;11.542;2024-02-28T07:43:12;6.80;99.90
45012;DHT22;63444;48.148;11.542;2024-02-28T07:45:39;6.80;99.90
45012;DHT22;63444;48.148;11.542;2024-02-28T07:48:05;6.90;99.90
45012;DHT22;63444;48.148;11.542;2024-02-28T07:50:31;6.90;99.90
45012;DHT22;63444;48.148;11.542;2024-02-28T07:52:57;6.90;99.90
45012;DHT22;63444;48.148;11.542;2024-02-28T07:55:22;7.00;99.90
45012;DHT22;63444;48.148;11.542;2024-02-28T07:57:54;6.90;99.90
45012;DHT22;63444;48.148;11.542;2024-02-28T08:00:20;6.90;99.90
45012;DHT22;63444;48.148;11.542;2024-02-28T08:02:46;7.00;99.90
45012;DHT22;63444;48.148;11.542;2024-02-28T08:05:13;7.00;99.90
45012;DHT22;63444;48.148;11.542;2024-02-28T08:07:38;7.10;99.90
45012;DHT22;63444;48.148;11.542;2024-02-28T08:10:04;7.10;99.90
45012;DHT22;63444;48.148;11.542;2024-02-28T08:12:35;7.00;99.90
45012;DHT22;63444;48.148;11.542;2024-02-28T08:15:02;7.00;99.90
45012;DHT22;63444;48.148;11.542;2024-02-28T08:17:27;7.00;99.90
45012;DHT22;63444;48.148;11.542;2024-02-28T08:19:53;7.00;99.90
45012;DHT22;63444;48.148;11.542;2024-02-28T08:22:20;7.00;99.90
45012;DHT22;63444;48.148;11.542;2024-02-28T08:24:45;7.00;99.90
45012;DHT22;63444;48.148;11.542;2024-02-28T08:27:11;6.90;99.90
45012;DHT22;63444;48.148;11.542;2024-02-28T08:29:40;6.90;99.90
45012;DHT22;63444;48.148;11.542;2024-02-28T08:32:09;7.00;99.90
45012;DHT22;63444;48.148;11.542;2024-02-28T08:34:35;7.10;99.90
45012;DHT22;63444;48.148;11.542;2024-02-28T08:37:02;7.20;99.90
45012;DHT22;63444;48.148;11.542;2024-02-28T08:39:27;7.20;99.90
45012;DHT22;63444;48.148;11.542;2024-02-28T08:41:53;7.30;99.90
45012;DHT22;63444;48.148;11.542;2024-02-28T08:44:19;7.30;99.90
45012;DHT22;63444;48.148;11.542;2024-02-28T08:46:49;7.20;99.90
45012;DHT22;63444;48.148;11.542;2024-02-28T08:49:15;7.20;99.90
45012;DHT22;63444;48.148;11.542;2024-02-28T08:51:40;7.10;99.90
45012;DHT22;63444;48.148;11.542;2024-02-28T08:54:06;7.20;99.90
45012;DHT22;63444;48.148;11.542;2024-02-28T08:56:32;7.30;99.90
45012;DHT22;63444;48.148;11.542;2024-02-28T08:58:58;7.20;99.90
45012;DHT22;63444;48.148;11.542;2024-02-28T09:01:24;7.40;99.90
45012;DHT22;63444;48.148;11.542;2024-02-28T09:03:50;7.30;99.90
45012;DHT22;63444;48.148;11.542;2024-02-28T09:06:16;7.20;99.90
45012;DHT22;63444;48.148;11.542;2024-02-28T09:08:41;7.10;99.90
45012;DHT22;63444;48.148;11.542;2024-02-28T09:11:07;7.10;99.90
45012;DHT22;63444;48.148;11.542;2024-02-28T09:13:33;7.10;99.90
45012;DHT22;63444;48.148;11.542;2024-02-28T09:16:01;7.30;99.90
45012;DHT22;63444;48.148;11.542;2024-02-28T09:18:27;7.30;99.90
45012;DHT22;63444;48.148;11.542;2024-02-28T09:20:53;7.40;99.90
45012;DHT22;63444;48.148;11.542;2024-02-28T09:23:18;7.50;99.90
45012;DHT22;63444;48.148;11.542;2024-02-28T09:25:44;7.50;99.90
45012;DHT22;63444;48.148;11.542;2024-02-28T09:28:10;7.50;99.90
45012;DHT22;63444;48.148;11.542;2024-02-28T09:30:38;7.40;99.90
45012;DHT22;63444;48.148;11.542;2024-02-28T09:33:04;7.30;99.90
45012;DHT22;63444;48.148;11.542;2024-02-28T09:35:29;7.30;99.90
45012;DHT22;63444;48.148;11.542;2024-02-28T09:37:55;7.30;99.90
45012;DHT22;63444;48.148;11.542;2024-02-28T09:40:20;7.30;99.90
45012;DHT22;63444;48.148;11.542;2024-02-28T09:42:52;7.30;99.90
45012;DHT22;63444;48.148;11.542;2024-02-28T09:45:20;7.40;99.90
45012;DHT22;63444;48.148;11.542;2024-02-28T09:47:46;7.40;99.90
45012;DHT22;63444;48.148;11.542;2024-02-28T09:50:13;7.40;99.90
45012;DHT22;63444;48.148;11.542;2024-02-28T09:52:39;7.40;99.90
45012;DHT22;63444;48.148;11.542;2024-02-28T09:55:05;7.50;99.90
45012;DHT22;63444;48.148;11.542;2024-02-28T09:57:32;7.60;99.90
45012;DHT22;63444;48.148;11.542;2024-02-28T10:00:00;7.70;99.90
45012;DHT22;63444;48.148;11.542;2024-02-28T10:02:26;7.80;99.90
45012;DHT22;63444;48.148;11.542;2024-02-28T10:04:53;7.80;99.90
45012;DHT22;63444;48.148;11.542;2024-02-28T10:07:19;7.90;99.90
45012;DHT22;63444;48.148;11.542;2024-02-28T10:09:45;7.90;99.90
45012;DHT22;63444;48.148;11.542;2024-02-28T10:12:11;8.00;99.90
45012;DHT22;63444;48.148;11.542;2024-02-28T10:14:37;8.00;99.90
45012;DHT22;63444;48.148;11.542;2024-02-28T10:17:04;8.10;99.90
45012;DHT22;63444;48.148;11.542;2024-02-28T10:19:30;8.10;99.90
45012;DHT22;63444;48.148;11.542;2024-02-28T10:21:56;8.10;99.90
45012;DHT22;63444;48.148;11.542;2024-02-28T10:24:24;8.10;99.90
45012;DHT22;63444;48.148;11.542;2024-02-28T10:26:49;8.10;99.90
45012;DHT22;63444;48.148;11.542;2024-02-28T10:29:25;8.00;99.90
45012;DHT22;63444;48.148;11.542;2024-02-28T10:31:55;8.00;99.90
45012;DHT22;63444;48.148;11.542;2024-02-28T10:34:21;8.10;99.90
45012;DHT22;63444;48.148;11.542;2024-02-28T10:36:47;8.10;99.90
45012;DHT22;63444;48.148;11.542;2024-02-28T10:39:13;8.10;99.90
45012;DHT22;63444;48.148;11.542;2024-02-28T10:41:40;8.10;99.90
45012;DHT22;63444;48.148;11.542;2024-02-28T10:44:06;8.20;99.90
45012;DHT22;63444;48.148;11.542;2024-02-28T10:46:31;8.20;99.90
45012;DHT22;63444;48.148;11.542;2024-02-28T10:48:57;8.20;99.90
45012;DHT22;63444;48.148;11.542;2024-02-28T10:51:24;8.30;99.90
45012;DHT22;63444;48.148;11.542;2024-02-28T10:54:13;8.30;99.90
45012;DHT22;63444;48.148;11.542;2024-02-28T10:56:40;8.30;99.90
45012;DHT22;63444;48.148;11.542;2024-02-28T10:59:08;8.20;99.90
45012;DHT22;63444;48.148;11.542;2024-02-28T11:01:36;8.10;99.90
45012;DHT22;63444;48.148;11.542;2024-02-28T11:04:03;8.10;99.90
45012;DHT22;63444;48.148;11.542;2024-02-28T11:06:29;8.00;99.90
45012;DHT22;63444;48.148;11.542;2024-02-28T11:08:59;8.10;99.90
45012;DHT22;63444;48.148;11.542;2024-02-28T11:11:25;8.10;99.90
45012;DHT22;63444;48.148;11.542;2024-02-28T11:13:56;8.20;99.90
45012;DHT22;63444;48.148;11.542;2024-02-28T11:16:31;8.20;99.90
45012;DHT22;63444;48.148;11.542;2024-02-28T11:18:58;8.30;99.90
45012;DHT22;63444;48.148;11.542;2024-02-28T11:21:28;8.30;99.90
45012;DHT22;63444;48.148;11.542;2024-02-28T11:24:00;8.30;99.90
45012;DHT22;63444;48.148;11.542;2024-02-28T11:26:27;8.20;99.90
45012;DHT22;63444;48.148;11.542;2024-02-28T11:28:56;8.20;99.90
45012;DHT22;63444;48.148;11.542;2024-02-28T11:31:21;8.30;99.90
45012;DHT22;63444;48.148;11.542;2024-02-28T11:33:47;8.40;99.90
45012;DHT22;63444;48.148;11.542;2024-02-28T11:36:13;8.40;99.90
45012;DHT22;63444;48.148;11.542;2024-02-28T11:38:40;8.30;99.90
45012;DHT22;63444;48.148;11.542;2024-02-28T11:41:06;8.30;99.90
45012;DHT22;63444;48.148;11.542;2024-02-28T11:43:33;8.30;99.90
45012;DHT22;63444;48.148;11.542;2024-02-28T11:46:00;8.20;99.90
45012;DHT22;63444;48.148;11.542;2024-02-28T11:48:26;8.20;99.90
45012;DHT22;63444;48.148;11.542;2024-02-28T11:50:53;8.10;99.90
45012;DHT22;63444;48.148;11.542;2024-02-28T11:53:19;8.00;99.90
45012;DHT22;63444;48.148;11.542;2024-02-28T11:55:46;8.00;99.90
45012;DHT22;63444;48.148;11.542;2024-02-28T11:58:13;8.00;99.90
45012;DHT22;63444;48.148;11.542;2024-02-28T12:00:49;8.00;99.90
45012;DHT22;63444;48.148;11.542;2024-02-28T12:03:23;8.10;99.90
45012;DHT22;63444;48.148;11.542;2024-02-28T12:05:50;8.10;99.90
45012;DHT22;63444;48.148;11.542;2024-02-28T12:08:19;8.10;99.90
45012;DHT22;63444;48.148;11.542;2024-02-28T12:10:48;8.10;99.90
45012;DHT22;63444;48.148;11.542;2024-02-28T12:13:22;8.10;99.90
45012;DHT22;63444;48.148;11.542;2024-02-28T12:15:49;8.10;99.90
45012;DHT22;63444;48.148;11.542;2024-02-28T12:18:15;8.00;99.90
45012;DHT22;63444;48.148;11.542;2024-02-28T12:20:41;8.00;99.90
45012;DHT22;63444;48.148;11.542;2024-02-28T12:23:07;7.90;99.90
45012;DHT22;63444;48.148;11.542;2024-02-28T12:25:33;7.90;99.90
45012;DHT22;63444;48.148;11.542;2024-02-28T12:28:00;7.90;99.90
45012;DHT22;63444;48.148;11.542;2024-02-28T12:30:26;7.80;99.90
45012;DHT22;63444;48.148;11.542;2024-02-28T12:32:52;7.80;99.90
45012;DHT22;63444;48.148;11.542;2024-02-28T12:35:17;7.80;99.90
45012;DHT22;63444;48.148;11.542;2024-02-28T12:37:43;7.80;99.90
45012;DHT22;63444;48.148;11.542;2024-02-28T12:40:09;7.80;99.90
45012;DHT22;63444;48.148;11.542;2024-02-28T12:42:34;7.80;99.90
45012;DHT22;63444;48.148;11.542;2024-02-28T12:45:02;7.80;99.90
45012;DHT22;63444;48.148;11.542;2024-02-28T12:47:28;7.80;99.90
45012;DHT22;63444;48.148;11.542;2024-02-28T12:49:56;7.80;99.90
45012;DHT22;63444;48.148;11.542;2024-02-28T12:52:21;7.90;99.90
45012;DHT22;63444;48.148;11.542;2024-02-28T12:54:47;8.00;99.90
45012;DHT22;63444;48.148;11.542;2024-02-28T12:57:12;8.00;99.90
45012;DHT22;63444;48.148;11.542;2024-02-28T12:59:42;8.00;99.90
45012;DHT22;63444;48.148;11.542;2024-02-28T13:02:09;8.10;99.90
45012;DHT22;63444;48.148;11.542;2024-02-28T13:04:35;8.00;99.90
45012;DHT22;63444;48.148;11.542;2024-02-28T13:07:00;8.10;99.90
45012;DHT22;63444;48.148;11.542;2024-02-28T13:09:26;8.10;99.90
45012;DHT22;63444;48.148;11.542;2024-02-28T13:11:51;8.10;99.90
45012;DHT22;63444;48.148;11.542;2024-02-28T13:14:17;8.00;99.90
45012;DHT22;63444;48.148;11.542;2024-02-28T13:16:44;8.00;99.90
45012;DHT22;63444;48.148;11.542;2024-02-28T13:19:09;8.00;99.90
45012;DHT22;63444;48.148;11.542;2024-02-28T13:21:35;8.10;99.90
45012;DHT22;63444;48.148;11.542;2024-02-28T13:24:02;8.10;99.90
45012;DHT22;63444;48.148;11.542;2024-02-28T13:26:28;8.10;99.90
45012;DHT22;63444;48.148;11.542;2024-02-28T13:28:54;8.20;99.90
45012;DHT22;63444;48.148;11.542;2024-02-28T13:31:20;8.10;99.90
45012;DHT22;63444;48.148;11.542;2024-02-28T13:33:46;8.10;99.90
45012;DHT22;63444;48.148;11.542;2024-02-28T13:36:13;8.20;99.90
45012;DHT22;63444;48.148;11.542;2024-02-28T13:38:39;8.10;99.90
45012;DHT22;63444;48.148;11.542;2024-02-28T13:41:05;8.10;99.90
45012;DHT22;63444;48.148;11.542;2024-02-28T13:43:31;8.10;99.90
45012;DHT22;63444;48.148;11.542;2024-02-28T13:45:56;8.00;99.90
45012;DHT22;63444;48.148;11.542;2024-02-28T13:48:26;8.00;99.90
45012;DHT22;63444;48.148;11.542;2024-02-28T13:50:54;8.10;99.90
45012;DHT22;63444;48.148;11.542;2024-02-28T13:53:20;8.00;99.90
45012;DHT22;63444;48.148;11.542;2024-02-28T13:55:45;8.00;99.90
45012;DHT22;63444;48.148;11.542;2024-02-28T13:58:12;8.00;99.90
45012;DHT22;63444;48.148;11.542;2024-02-28T14:00:39;8.00;99.90
45012;DHT22;63444;48.148;11.542;2024-02-28T14:03:05;8.00;99.90
45012;DHT22;63444;48.148;11.542;2024-02-28T14:05:33;8.00;99.90
45012;DHT22;63444;48.148;11.542;2024-02-28T14:08:00;8.00;99.90
45012;DHT22;63444;48.148;11.542;2024-02-28T14:10:26;8.00;99.90
45012;DHT22;63444;48.148;11.542;2024-02-28T14:12:52;7.90;99.90
45012;DHT22;63444;48.148;11.542;2024-02-28T14:15:19;7.90;99.90
45012;DHT22;63444;48.148;11.542;2024-02-28T14:17:44;7.90;99.90
45012;DHT22;63444;48.148;11.542;2024-02-28T14:20:11;7.90;99.90
45012;DHT22;63444;48.148;11.542;2024-02-28T14:22:38;7.90;99.90
45012;DHT22;63444;48.148;11.542;2024-02-28T14:25:14;7.90;99.90
45012;DHT22;63444;48.148;11.542;2024-02-28T14:27:41;8.00;99.90
45012;DHT22;63444;48.148;11.542;2024-02-28T14:30:08;8.10;99.90
45012;DHT22;63444;48.148;11.542;2024-02-28T14:32:34;8.10;99.90
45012;DHT22;63444;48.148;11.542;2024-02-28T14:35:01;8.10;99.90
45012;DHT22;63444;48.148;11.542;2024-02-28T14:37:26;8.10;99.90
45012;DHT22;63444;48.148;11.542;2024-02-28T14:39:53;8.10;99.90
45012;DHT22;63444;48.148;11.542;2024-02-28T14:42:19;8.10;99.90
45012;DHT22;63444;48.148;11.542;2024-02-28T14:44:45;8.10;99.90
45012;DHT22;63444;48.148;11.542;2024-02-28T14:47:11;8.10;99.90
45012;DHT22;63444;48.148;11.542;2024-02-28T14:49:36;8.20;99.90
45012;DHT22;63444;48.148;11.542;2024-02-28T14:52:03;8.20;99.90
45012;DHT22;63444;48.148;11.542;2024-02-28T14:54:29;8.20;99.90
45012;DHT22;63444;48.148;11.542;2024-02-28T14:56:54;8.10;99.90
45012;DHT22;63444;48.148;11.542;2024-02-28T14:59:20;8.10;99.90
45012;DHT22;63444;48.148;11.542;2024-02-28T15:01:45;8.10;99.90
45012;DHT22;63444;48.148;11.542;2024-02-28T15:04:11;8.10;99.90
45012;DHT22;63444;48.148;11.542;2024-02-28T15:06:39;8.00;99.90
45012;DHT22;63444;48.148;11.542;2024-02-28T15:09:05;8.00;99.90
45012;DHT22;63444;48.148;11.542;2024-02-28T15:11:31;8.00;99.90
45012;DHT22;63444;48.148;11.542;2024-02-28T15:13:56;8.10;99.90
45012;DHT22;63444;48.148;11.542;2024-02-28T15:16:22;8.00;99.90
45012;DHT22;63444;48.148;11.542;2024-02-28T15:18:47;8.00;99.90
45012;DHT22;63444;48.148;11.542;2024-02-28T15:21:13;8.00;99.90
45012;DHT22;63444;48.148;11.542;2024-02-28T15:23:39;8.10;99.90
45012;DHT22;63444;48.148;11.542;2024-02-28T15:26:04;8.00;99.90